Time;durP1;ratioP1;P1;durP2;ratioP2;P2;SDS_P1;SDS_P2;PMS_P1;PMS_P2;Temp;Humidity;BMP_temperature;BMP_pressure;BME280_temperature;BME280_humidity;BME280_pressure;Samples;Min_cycle;Max_cycle;Signal;HPM_P1;HPM_P2
2023/11/04 00:00:48;;;;;;;0.70;0.70;;;5.20;99.90;;;;;;5036959;28;20547;-80
2023/11/04 00:03:14;;;;;;;0.90;0.47;;;5.20;99.90;;;;;;5035256;28;21017;-80
2023/11/04 00:05:41;;;;;;;0.70;0.70;;;5.20;99.90;;;;;;5035137;28;20469;-79
2023/11/04 00:08:08;;;;;;;0.50;0.50;;;5.20;99.90;;;;;;5035965;28;20474;-80
2023/11/04 00:10:35;;;;;;;0.70;0.70;;;5.10;99.90;;;;;;5035498;28;20438;-80
2023/11/04 00:13:01;;;;;;;0.50;0.50;;;5.20;99.90;;;;;;5035414;28;20919;-80
2023/11/04 00:15:28;;;;;;;0.40;0.40;;;5.10;99.90;;;;;;5036166;28;20450;-81
2023/11/04 00:17:56;;;;;;;0.40;0.40;;;5.10;99.90;;;;;;5035450;28;20909;-79
2023/11/04 00:20:26;;;;;;;0.50;0.40;;;5.20;99.90;;;;;;5036694;28;20448;-79
2023/11/04 00:22:53;;;;;;;0.80;0.80;;;5.10;99.90;;;;;;5034763;28;20486;-79
2023/11/04 00:25:20;;;;;;;1.07;0.90;;;5.20;99.90;;;;;;5034266;28;20442;-79
2023/11/04 00:27:46;;;;;;;0.60;0.60;;;5.20;99.90;;;;;;5035463;28;20446;-80
2023/11/04 00:30:14;;;;;;;0.50;0.50;;;5.20;99.90;;;;;;5035956;28;20447;-80
2023/11/04 00:32:41;;;;;;;0.30;0.30;;;5.20;99.90;;;;;;5037195;28;20538;-81
2023/11/04 00:35:09;;;;;;;1.17;0.40;;;5.20;99.90;;;;;;5035277;28;20919;-80
2023/11/04 00:37:37;;;;;;;0.60;0.57;;;5.10;99.90;;;;;;5034784;28;20459;-79
2023/11/04 00:40:06;;;;;;;0.40;0.40;;;5.10;99.90;;;;;;5035467;28;20443;-80
2023/11/04 00:42:33;;;;;;;3.23;0.70;;;5.10;99.90;;;;;;5035175;28;20943;-81
2023/11/04 00:44:59;;;;;;;0.43;0.40;;;5.10;99.90;;;;;;5035103;28;20446;-80
2023/11/04 00:47:26;;;;;;;0.97;0.50;;;5.10;99.90;;;;;;5035222;28;20470;-80
2023/11/04 00:49:54;;;;;;;0.40;0.40;;;5.10;99.90;;;;;;5035072;28;20445;-80
2023/11/04 00:52:22;;;;;;;0.40;0.40;;;5.10;99.90;;;;;;5035720;28;20451;-81
2023/11/04 00:54:49;;;;;;;0.50;0.30;;;5.10;99.90;;;;;;5035241;28;20838;-81
2023/11/04 00:57:15;;;;;;;0.43;0.43;;;5.10;99.90;;;;;;5034740;28;20481;-80
2023/11/04 00:59:42;;;;;;;1.00;0.50;;;5.10;99.90;;;;;;5034837;28;20442;-80
2023/11/04 01:02:10;;;;;;;0.40;0.40;;;5.10;99.90;;;;;;5034553;28;20803;-81
2023/11/04 01:04:36;;;;;;;2.37;0.40;;;5.10;99.90;;;;;;5034427;28;21005;-80
2023/11/04 01:07:05;;;;;;;0.40;0.30;;;5.10;99.90;;;;;;5036129;28;20459;-78
2023/11/04 01:09:33;;;;;;;0.60;0.60;;;5.10;99.90;;;;;;5035001;28;20546;-79
2023/11/04 01:11:59;;;;;;;0.50;0.40;;;5.10;99.90;;;;;;5035583;28;20537;-80
2023/11/04 01:14:26;;;;;;;0.40;0.40;;;5.00;99.90;;;;;;5036297;28;20443;-79
2023/11/04 01:16:53;;;;;;;0.37;0.30;;;5.10;99.90;;;;;;5034189;28;20467;-79
2023/11/04 01:19:19;;;;;;;0.37;0.33;;;5.10;99.90;;;;;;5035069;28;20454;-80
2023/11/04 01:21:46;;;;;;;0.77;0.40;;;5.10;99.90;;;;;;5034439;28;20445;-79
2023/11/04 01:24:13;;;;;;;0.40;0.30;;;5.10;99.90;;;;;;5035498;28;20845;-80
2023/11/04 01:26:41;;;;;;;0.60;0.50;;;5.20;99.90;;;;;;5034442;28;20470;-80
2023/11/04 01:29:10;;;;;;;0.30;0.30;;;5.20;99.90;;;;;;5033796;28;21008;-80
2023/11/04 01:31:37;;;;;;;2.10;0.80;;;5.20;99.90;;;;;;5034747;28;20962;-80
2023/11/04 01:34:03;;;;;;;1.07;0.60;;;5.20;99.90;;;;;;5034443;28;20438;-80
2023/11/04 01:36:30;;;;;;;0.40;0.37;;;5.10;99.90;;;;;;5034244;28;20466;-80
2023/11/04 01:38:57;;;;;;;0.40;0.30;;;5.10;99.90;;;;;;5035459;28;20442;-80
2023/11/04 01:41:24;;;;;;;1.60;1.07;;;5.10;99.90;;;;;;5035921;28;20454;-80
2023/11/04 01:43:52;;;;;;;0.40;0.33;;;5.10;99.90;;;;;;5038604;28;20478;-79
2023/11/04 01:46:25;;;;;;;0.80;0.40;;;5.10;99.90;;;;;;5039642;28;20470;-80
2023/11/04 01:48:51;;;;;;;0.30;0.30;;;5.10;99.90;;;;;;5038636;28;20529;-79
2023/11/04 01:51:19;;;;;;;0.50;0.30;;;5.10;99.90;;;;;;5038786;28;20447;-80
2023/11/04 01:53:49;;;;;;;0.50;0.50;;;5.10;99.90;;;;;;5038744;28;20825;-79
2023/11/04 01:56:20;;;;;;;1.63;0.50;;;5.10;99.90;;;;;;5037303;28;20478;-78
2023/11/04 01:58:47;;;;;;;0.30;0.30;;;5.10;99.90;;;;;;5038058;28;20438;-79
2023/11/04 02:01:16;;;;;;;0.70;0.70;;;5.00;99.90;;;;;;5038857;28;20472;-80
2023/11/04 02:03:42;;;;;;;0.50;0.50;;;5.00;99.90;;;;;;5038351;28;20478;-79
2023/11/04 02:06:09;;;;;;;0.40;0.40;;;5.10;99.90;;;;;;5038399;28;20466;-80
2023/11/04 02:08:36;;;;;;;0.70;0.53;;;5.10;99.90;;;;;;5037964;28;20521;-80
2023/11/04 02:11:04;;;;;;;0.70;0.40;;;5.10;99.90;;;;;;5037362;28;20973;-79
2023/11/04 02:13:30;;;;;;;0.60;0.60;;;5.10;99.90;;;;;;5037871;28;20794;-79
2023/11/04 02:15:57;;;;;;;0.37;0.33;;;5.00;99.90;;;;;;5037393;28;20463;-79
2023/11/04 02:18:26;;;;;;;0.30;0.20;;;5.00;99.90;;;;;;5036872;28;20447;-78
2023/11/04 02:20:54;;;;;;;1.23;0.40;;;5.10;99.90;;;;;;5037778;28;20450;-80
2023/11/04 02:23:22;;;;;;;0.43;0.43;;;5.10;99.90;;;;;;5037053;28;20479;-79
2023/11/04 02:25:48;;;;;;;0.50;0.30;;;5.10;99.90;;;;;;5037401;28;20470;-79
2023/11/04 02:28:15;;;;;;;2.10;0.50;;;5.10;99.90;;;;;;5037775;28;20447;-80
2023/11/04 02:30:42;;;;;;;0.40;0.40;;;5.10;99.90;;;;;;5038003;28;20482;-80
2023/11/04 02:33:09;;;;;;;0.40;0.40;;;5.10;99.90;;;;;;5037644;28;20457;-80
2023/11/04 02:35:36;;;;;;;1.03;0.47;;;5.20;99.90;;;;;;5037139;28;20470;-80
2023/11/04 02:38:03;;;;;;;0.60;0.47;;;5.10;99.90;;;;;;5037120;28;20453;-78
2023/11/04 02:40:31;;;;;;;0.40;0.30;;;5.10;99.90;;;;;;5038030;28;20444;-78
2023/11/04 02:42:57;;;;;;;0.30;0.20;;;5.20;99.90;;;;;;5037960;28;20959;-80
2023/11/04 02:45:24;;;;;;;0.30;0.30;;;5.30;99.90;;;;;;5037089;28;20451;-81
2023/11/04 02:47:51;;;;;;;2.70;0.60;;;5.40;99.90;;;;;;5037276;28;20435;-80
2023/11/04 02:50:18;;;;;;;0.53;0.53;;;5.40;99.90;;;;;;5038440;28;20453;-81
2023/11/04 02:52:45;;;;;;;0.40;0.30;;;5.50;99.90;;;;;;5036501;28;20438;-79
2023/11/04 02:55:11;;;;;;;0.30;0.30;;;5.50;99.90;;;;;;5037544;28;20443;-79
2023/11/04 02:57:40;;;;;;;0.97;0.33;;;5.60;99.90;;;;;;5100729;22;20483;-80
2023/11/04 03:00:08;;;;;;;0.97;0.43;;;5.60;99.90;;;;;;5036612;28;20439;-81
2023/11/04 03:02:35;;;;;;;0.40;0.40;;;5.60;99.90;;;;;;5036861;28;20955;-81
2023/11/04 03:05:02;;;;;;;0.40;0.40;;;5.50;99.90;;;;;;5036286;28;20574;-81
2023/11/04 03:07:29;;;;;;;0.40;0.40;;;5.50;99.90;;;;;;5037552;28;20467;-81
2023/11/04 03:09:56;;;;;;;0.40;0.40;;;;;;;;;;5035815;28;20820;-81
2023/11/04 03:12:23;;;;;;;0.50;0.50;;;5.50;99.90;;;;;;5035993;28;20443;-81
2023/11/04 03:14:51;;;;;;;0.30;0.20;;;5.50;99.90;;;;;;5035524;28;20896;-81
2023/11/04 03:17:18;;;;;;;0.40;0.40;;;;;;;;;;5035414;28;20971;-81
2023/11/04 03:19:45;;;;;;;0.40;0.40;;;;;;;;;;5035444;28;20447;-81
2023/11/04 03:22:13;;;;;;;8.13;0.50;;;;;;;;;;5035477;28;20443;-81
2023/11/04 03:24:43;;;;;;;0.30;0.20;;;5.40;99.90;;;;;;5035190;28;20823;-81
2023/11/04 03:27:10;;;;;;;0.30;0.30;;;;;;;;;;5035164;28;20467;-81
2023/11/04 03:29:37;;;;;;;0.50;0.50;;;;;;;;;;5035040;28;20439;-81
2023/11/04 03:32:06;;;;;;;0.50;0.40;;;5.40;99.90;;;;;;5035074;28;20453;-81
2023/11/04 03:34:33;;;;;;;0.30;0.30;;;;;;;;;;5035326;28;20461;-81
2023/11/04 03:37:02;;;;;;;0.30;0.30;;;;;;;;;;5035053;28;20470;-81
2023/11/04 03:39:29;;;;;;;0.70;0.30;;;5.30;99.90;;;;;;5035220;28;20516;-81
2023/11/04 03:41:56;;;;;;;0.40;0.30;;;;;;;;;;5035328;28;20446;-81
2023/11/04 03:44:23;;;;;;;0.40;0.40;;;;;;;;;;5036195;28;20493;-81
2023/11/04 03:46:50;;;;;;;0.30;0.20;;;;;;;;;;5035004;28;20515;-81
2023/11/04 03:49:18;;;;;;;0.30;0.30;;;5.40;99.90;;;;;;5034973;28;20866;-81
2023/11/04 03:51:45;;;;;;;0.30;0.30;;;;;;;;;;5036565;28;20435;-80
2023/11/04 03:54:12;;;;;;;0.73;0.30;;;;;;;;;;5035348;28;20473;-80
2023/11/04 03:56:40;;;;;;;0.40;0.30;;;;;;;;;;5034990;28;20477;-81
2023/11/04 03:59:07;;;;;;;0.40;0.30;;;;;;;;;;5035350;28;20961;-81
2023/11/04 04:01:39;;;;;;;0.30;0.30;;;5.40;99.90;;;;;;5039332;28;20794;-81
2023/11/04 04:04:06;;;;;;;0.33;0.33;;;5.30;99.90;;;;;;5034918;28;20471;-81
2023/11/04 04:06:35;;;;;;;0.30;0.27;;;5.40;99.90;;;;;;5037333;28;20467;-81
2023/11/04 04:09:02;;;;;;;0.40;0.30;;;;;;;;;;5044228;28;20898;-81
2023/11/04 04:11:29;;;;;;;1.60;0.50;;;;;;;;;;5044853;28;20454;-81
2023/11/04 04:13:56;;;;;;;0.80;0.60;;;;;;;;;;5044743;28;20423;-81
2023/11/04 04:16:23;;;;;;;0.30;0.20;;;;;;;;;;5045711;28;20467;-81
2023/11/04 04:18:51;;;;;;;0.40;0.30;;;5.20;99.90;;;;;;5044621;28;20439;-81
2023/11/04 04:21:18;;;;;;;0.30;0.30;;;7.00;99.90;;;;;;5044969;28;20453;-81
2023/11/04 04:23:46;;;;;;;0.77;0.30;;;5.20;99.90;;;;;;5036634;28;20453;-81
2023/11/04 04:26:19;;;;;;;0.30;0.20;;;5.00;99.90;;;;;;5038196;28;20842;-82
2023/11/04 04:28:46;;;;;;;0.30;0.30;;;;;;;;;;5040169;28;20415;-82
2023/11/04 04:31:14;;;;;;;0.40;0.30;;;;;;;;;;5039927;28;20443;-82
2023/11/04 04:33:42;;;;;;;0.40;0.30;;;5.40;99.90;;;;;;5043500;28;20439;-82
2023/11/04 04:36:09;;;;;;;0.30;0.30;;;8.10;99.90;;;;;;5037343;28;20450;-82
2023/11/04 04:38:37;;;;;;;0.30;0.30;;;5.30;99.90;;;;;;5037068;28;20435;-82
2023/11/04 04:41:05;;;;;;;0.50;0.30;;;5.30;99.90;;;;;;5035906;28;20856;-82
2023/11/04 04:43:32;;;;;;;0.30;0.30;;;;;;;;;;5035945;28;20435;-82
2023/11/04 04:46:01;;;;;;;0.30;0.20;;;5.40;99.90;;;;;;5035628;28;20435;-82
2023/11/04 04:48:28;;;;;;;2.80;0.50;;;;;;;;;;5037191;28;20520;-82
2023/11/04 04:51:01;;;;;;;0.30;0.30;;;5.50;99.90;;;;;;5040258;28;20453;-82
2023/11/04 04:53:45;;;;;;;0.30;0.30;;;8.10;99.90;;;;;;5037854;28;20455;-82
2023/11/04 04:56:46;;;;;;;0.73;0.33;;;5.50;99.90;;;;;;5037592;28;20467;-82
2023/11/04 04:59:21;;;;;;;0.50;0.50;;;5.50;99.90;;;;;;5009187;28;20542;-82
2023/11/04 05:02:13;;;;;;;0.37;0.30;;;5.50;99.90;;;;;;5038647;28;20427;-82
2023/11/04 05:05:02;;;;;;;0.30;0.20;;;5.50;99.90;;;;;;5038241;28;20459;-82
2023/11/04 05:07:34;;;;;;;0.40;0.40;;;5.60;99.90;;;;;;5071190;22;21056;-81
2023/11/04 05:10:02;;;;;;;0.30;0.20;;;7.90;99.90;;;;;;5037636;28;20504;-81
2023/11/04 05:12:29;;;;;;;0.40;0.30;;;5.50;99.90;;;;;;5037125;28;20451;-81
2023/11/04 05:15:04;;;;;;;0.30;0.30;;;5.50;99.90;;;;;;5021542;28;20439;-81
2023/11/04 05:17:34;;;;;;;0.40;0.37;;;5.50;99.90;;;;;;5024477;28;20950;-82
2023/11/04 05:20:29;;;;;;;0.30;0.30;;;7.60;99.90;;;;;;5040104;28;20450;-81
2023/11/04 05:28:51;;;;;;;0.40;0.30;;;5.70;99.90;;;;;;5072823;28;20468;-82
2023/11/04 05:31:21;;;;;;;0.80;0.30;;;6.30;99.90;;;;;;5076140;28;20437;-82
2023/11/04 05:33:54;;;;;;;0.30;0.30;;;5.70;99.90;;;;;;5074495;28;20444;-82
2023/11/04 05:36:22;;;;;;;0.93;0.30;;;;;;;;;;5074803;28;20473;-82
2023/11/04 05:38:53;;;;;;;0.30;0.30;;;5.70;99.90;;;;;;5074121;28;20460;-82
2023/11/04 05:41:54;;;;;;;0.53;0.43;;;5.70;99.90;;;;;;5058338;28;20430;-82
2023/11/04 05:44:50;;;;;;;0.30;0.20;;;5.70;99.90;;;;;;5057531;28;20478;-82
2023/11/04 05:47:46;;;;;;;0.50;0.40;;;5.60;99.90;;;;;;5074764;28;20466;-82
2023/11/04 05:50:36;;;;;;;0.30;0.30;;;5.60;99.90;;;;;;5075796;28;20516;-82
2023/11/04 05:53:13;;;;;;;1.67;0.53;;;5.60;99.90;;;;;;5071964;28;20450;-82
2023/11/04 05:55:52;;;;;;;0.30;0.30;;;5.60;99.90;;;;;;5073192;28;20445;-82
2023/11/04 05:58:37;;;;;;;0.50;0.50;;;5.60;99.90;;;;;;5071219;28;20464;-82
2023/11/04 06:01:10;;;;;;;0.30;0.30;;;5.50;99.90;;;;;;5056306;28;20946;-82
2023/11/04 06:04:12;;;;;;;0.30;0.30;;;5.50;99.90;;;;;;5059362;28;20528;-82
2023/11/04 06:06:51;;;;;;;0.30;0.30;;;5.50;99.90;;;;;;5069052;28;20466;-82
2023/11/04 06:09:27;;;;;;;0.30;0.30;;;5.50;99.90;;;;;;5073314;28;20468;-82
2023/11/04 06:12:03;;;;;;;0.37;0.33;;;7.00;99.90;;;;;;5072088;28;20452;-82
2023/11/04 06:14:36;;;;;;;0.50;0.30;;;5.50;99.90;;;;;;5074065;28;20480;-82
2023/11/04 06:17:08;;;;;;;0.30;0.30;;;5.60;99.90;;;;;;5072664;28;20469;-82
2023/11/04 06:19:56;;;;;;;0.30;0.20;;;5.50;99.90;;;;;;5073982;28;20422;-82
2023/11/04 06:25:15;;;;;;;0.37;0.30;;;5.50;99.90;;;;;;5075652;28;20497;-82
2023/11/04 06:28:05;;;;;;;0.30;0.30;;;5.50;99.90;;;;;;5058920;28;20507;-82
2023/11/04 06:30:35;;;;;;;0.30;0.30;;;7.30;99.90;;;;;;5075965;28;20517;-82
2023/11/04 06:33:18;;;;;;;0.30;0.27;;;5.60;99.90;;;;;;5076612;28;20444;-82
2023/11/04 06:36:03;;;;;;;0.40;0.30;;;5.60;99.90;;;;;;5061917;28;20465;-82
2023/11/04 06:41:20;;;;;;;0.30;0.30;;;5.50;99.90;;;;;;5076794;28;20450;-82
2023/11/04 06:43:54;;;;;;;0.40;0.30;;;5.60;99.90;;;;;;5076709;28;20482;-82
2023/11/04 06:46:24;;;;;;;0.43;0.30;;;5.50;99.90;;;;;;5076626;28;20465;-82
2023/11/04 06:48:55;;;;;;;0.30;0.30;;;5.50;99.90;;;;;;5074039;28;20434;-82
2023/11/04 06:51:30;;;;;;;0.30;0.30;;;8.20;99.90;;;;;;5076442;28;20437;-82
2023/11/04 06:54:00;;;;;;;0.40;0.40;;;8.30;99.90;;;;;;5076972;28;20448;-82
2023/11/04 06:56:32;;;;;;;0.30;0.30;;;4.20;99.90;;;;;;5076846;28;20485;-82
2023/11/04 06:59:04;;;;;;;0.30;0.30;;;5.50;99.90;;;;;;5072505;28;20446;-81
2023/11/04 07:01:37;;;;;;;0.30;0.30;;;5.50;99.90;;;;;;5074840;28;20441;-82
2023/11/04 07:04:14;;;;;;;0.30;0.20;;;5.50;99.90;;;;;;5073709;28;20458;-81
2023/11/04 07:06:47;;;;;;;0.30;0.20;;;5.50;99.90;;;;;;5073887;28;20477;-82
2023/11/04 07:09:18;;;;;;;0.30;0.30;;;7.50;99.90;;;;;;5073884;28;20458;-81
2023/11/04 07:11:48;;;;;;;0.30;0.30;;;5.50;99.90;;;;;;5076523;28;20457;-80
2023/11/04 07:14:18;;;;;;;0.30;0.20;;;5.50;99.90;;;;;;5073291;28;20454;-81
2023/11/04 07:16:48;;;;;;;0.30;0.30;;;5.50;99.90;;;;;;5073325;28;20474;-82
2023/11/04 07:19:17;;;;;;;0.50;0.50;;;5.60;99.90;;;;;;5075055;28;20488;-82
2023/11/04 07:22:00;;;;;;;1.70;0.30;;;5.70;99.90;;;;;;5070625;28;20453;-82
2023/11/04 07:24:29;;;;;;;0.30;0.30;;;5.70;99.90;;;;;;5218785;22;20497;-81
2023/11/04 07:29:46;;;;;;;0.30;0.30;;;5.80;99.90;;;;;;5050045;28;20459;-81
2023/11/04 07:32:18;;;;;;;0.40;0.30;;;5.90;99.90;;;;;;5050755;28;20529;-81
2023/11/04 07:34:45;;;;;;;0.30;0.27;;;6.00;99.90;;;;;;5045355;28;20431;-81
2023/11/04 07:37:52;;;;;;;0.40;0.37;;;6.00;99.90;;;;;;5043137;28;20470;-81
2023/11/04 07:40:54;;;;;;;0.30;0.30;;;6.00;99.90;;;;;;5046994;28;20484;-81
2023/11/04 07:48:57;;;;;;;2.10;0.50;;;6.30;99.90;;;;;;5041752;28;21077;-81
2023/11/04 07:51:25;;;;;;;1.00;0.50;;;6.50;99.90;;;;;;5043290;28;20514;-81
2023/11/04 07:53:52;;;;;;;0.80;0.60;;;6.60;99.90;;;;;;5039401;28;20442;-81
2023/11/04 07:56:21;;;;;;;0.30;0.30;;;6.60;99.90;;;;;;5042414;28;20506;-81
2023/11/04 07:58:48;;;;;;;0.40;0.37;;;6.80;99.90;;;;;;5038033;28;20447;-80
2023/11/04 08:01:19;;;;;;;0.30;0.30;;;6.90;99.90;;;;;;5038946;28;20421;-80
2023/11/04 08:03:46;;;;;;;0.30;0.23;;;;;;;;;;5038317;28;20501;-80
2023/11/04 08:06:13;;;;;;;0.30;0.20;;;7.00;99.90;;;;;;5034904;28;20501;-80
2023/11/04 08:08:40;;;;;;;0.30;0.30;;;7.10;99.90;;;;;;5037328;28;20515;-80
2023/11/04 08:11:07;;;;;;;0.30;0.20;;;7.30;99.90;;;;;;5037337;28;20462;-80
2023/11/04 08:13:35;;;;;;;0.30;0.30;;;9.30;99.90;;;;;;5038205;28;20435;-80
2023/11/04 08:16:02;;;;;;;0.30;0.30;;;7.40;99.90;;;;;;5036514;28;20462;-80
2023/11/04 08:18:31;;;;;;;0.40;0.30;;;7.60;99.90;;;;;;5036671;28;20470;-80
2023/11/04 08:20:57;;;;;;;0.30;0.20;;;7.70;99.90;;;;;;5037824;28;20439;-80
2023/11/04 08:23:23;;;;;;;0.30;0.30;;;7.90;99.90;;;;;;5041524;28;20497;-80
2023/11/04 08:25:50;;;;;;;0.57;0.30;;;7.90;99.90;;;;;;5037809;28;20231;-81
2023/11/04 08:28:17;;;;;;;0.30;0.30;;;8.00;99.90;;;;;;5036627;28;20451;-80
2023/11/04 08:30:51;;;;;;;0.60;0.40;;;8.20;99.90;;;;;;5037362;28;20447;-81
2023/11/04 08:33:18;;;;;;;0.40;0.40;;;8.30;99.90;;;;;;5036767;28;20458;-81
2023/11/04 08:35:45;;;;;;;0.40;0.40;;;8.50;99.90;;;;;;5035972;28;20439;-80
2023/11/04 08:38:12;;;;;;;0.30;0.30;;;8.60;99.90;;;;;;5037373;28;20467;-81
2023/11/04 08:40:39;;;;;;;0.40;0.40;;;10.30;99.90;;;;;;5037265;28;20448;-81
2023/11/04 08:43:06;;;;;;;0.30;0.30;;;8.90;99.90;;;;;;5037014;28;20982;-81
2023/11/04 08:45:32;;;;;;;0.30;0.30;;;9.10;99.90;;;;;;5037153;28;20470;-81
2023/11/04 08:48:00;;;;;;;0.40;0.40;;;9.40;99.90;;;;;;5038424;28;20489;-83
2023/11/04 08:50:28;;;;;;;0.40;0.40;;;9.60;99.90;;;;;;5036800;28;20951;-82
2023/11/04 08:52:55;;;;;;;0.50;0.40;;;9.50;99.90;;;;;;5037273;28;20451;-81
2023/11/04 08:55:22;;;;;;;0.37;0.30;;;9.40;99.90;;;;;;5038110;28;20462;-82
2023/11/04 08:57:49;;;;;;;2.60;0.47;;;9.50;99.90;;;;;;5087538;22;20500;-82
2023/11/04 09:00:16;;;;;;;0.30;0.30;;;9.50;99.90;;;;;;5091182;28;20452;-82
2023/11/04 09:02:43;;;;;;;0.40;0.33;;;9.60;99.90;;;;;;5073276;28;20924;-80
2023/11/04 09:05:11;;;;;;;0.40;0.40;;;10.00;99.90;;;;;;5073498;28;20843;-80
2023/11/04 09:07:38;;;;;;;0.30;0.30;;;11.20;99.90;;;;;;5061998;28;20988;-82
2023/11/04 09:10:05;;;;;;;0.40;0.30;;;12.30;99.90;;;;;;5053602;28;20444;-81
2023/11/04 09:12:32;;;;;;;0.47;0.40;;;13.00;99.90;;;;;;5053158;28;20448;-79
2023/11/04 09:14:59;;;;;;;0.70;0.40;;;13.10;99.90;;;;;;5053223;28;20865;-81
2023/11/04 09:17:26;;;;;;;3.13;0.50;;;12.70;99.90;;;;;;5053180;28;20461;-80
2023/11/04 09:19:52;;;;;;;0.40;0.30;;;12.00;99.90;;;;;;5053535;28;20815;-81
2023/11/04 09:22:21;;;;;;;0.40;0.30;;;11.70;99.90;;;;;;5053145;28;21040;-79
2023/11/04 09:24:48;;;;;;;0.40;0.30;;;11.50;99.90;;;;;;5053723;28;20442;-80
2023/11/04 09:27:15;;;;;;;0.40;0.40;;;11.50;99.90;;;;;;5053260;28;20516;-80
2023/11/04 09:29:42;;;;;;;0.83;0.40;;;;;;;;;;5053819;28;20962;-80
2023/11/04 09:32:09;;;;;;;0.63;0.63;;;11.10;99.90;;;;;;5053162;28;20441;-79
2023/11/04 09:34:36;;;;;;;0.40;0.30;;;11.00;99.90;;;;;;5053254;28;21000;-85
2023/11/04 09:37:03;;;;;;;0.40;0.30;;;10.90;99.90;;;;;;5053397;28;20465;-80
2023/11/04 09:39:31;;;;;;;0.30;0.30;;;11.00;99.90;;;;;;5053164;28;20446;-79
2023/11/04 09:41:58;;;;;;;0.50;0.40;;;11.20;99.90;;;;;;5053891;28;20811;-82
2023/11/04 09:44:25;;;;;;;0.70;0.37;;;11.30;99.90;;;;;;5053955;28;20540;-81
2023/11/04 09:46:52;;;;;;;0.50;0.30;;;11.40;99.90;;;;;;5054465;28;20539;-83
2023/11/04 09:49:19;;;;;;;0.40;0.40;;;11.60;99.90;;;;;;5053640;28;20899;-79
2023/11/04 09:51:46;;;;;;;0.40;0.40;;;11.70;99.90;;;;;;5053441;28;20445;-80
2023/11/04 09:54:14;;;;;;;0.40;0.30;;;11.50;99.90;;;;;;5053640;28;20434;-81
2023/11/04 09:56:42;;;;;;;0.53;0.33;;;11.40;99.90;;;;;;5054614;28;20477;-80
2023/11/04 09:59:09;;;;;;;0.40;0.30;;;11.20;99.90;;;;;;5054043;28;20494;-80
2023/11/04 10:01:36;;;;;;;0.30;0.30;;;10.80;99.90;;;;;;5054177;28;20450;-81
2023/11/04 10:04:03;;;;;;;1.00;0.43;;;10.60;99.90;;;;;;5058177;28;20454;-81
2023/11/04 10:06:29;;;;;;;1.27;0.60;;;10.40;99.90;;;;;;5057835;28;20486;-80
2023/11/04 10:08:56;;;;;;;0.30;0.30;;;10.30;99.90;;;;;;5057653;28;20441;-81
2023/11/04 10:11:23;;;;;;;0.30;0.30;;;10.30;99.90;;;;;;5057531;28;20473;-80
2023/11/04 10:13:51;;;;;;;0.30;0.30;;;10.30;99.90;;;;;;5057384;28;20445;-80
2023/11/04 10:16:18;;;;;;;0.40;0.30;;;10.30;99.90;;;;;;5057289;28;20445;-80
2023/11/04 10:18:46;;;;;;;0.50;0.50;;;10.20;99.90;;;;;;5057044;28;20446;-81
2023/11/04 10:21:13;;;;;;;0.30;0.30;;;10.10;99.90;;;;;;5057089;28;20874;-80
2023/11/04 10:23:40;;;;;;;0.40;0.40;;;10.00;99.90;;;;;;5056743;28;20533;-81
2023/11/04 10:26:07;;;;;;;0.30;0.30;;;9.90;99.90;;;;;;5056878;28;20516;-81
2023/11/04 10:28:35;;;;;;;0.50;0.30;;;9.80;99.90;;;;;;5056774;28;20524;-83
2023/11/04 10:31:05;;;;;;;0.40;0.40;;;9.60;99.90;;;;;;5056992;28;20968;-81
2023/11/04 10:33:34;;;;;;;0.30;0.30;;;9.60;99.90;;;;;;5057914;28;20437;-81
2023/11/04 10:36:04;;;;;;;0.40;0.30;;;9.60;99.90;;;;;;5058092;28;20492;-83
2023/11/04 10:38:33;;;;;;;0.40;0.30;;;9.50;99.90;;;;;;5057650;28;20458;-82
2023/11/04 10:41:02;;;;;;;0.30;0.30;;;9.50;99.90;;;;;;5057443;28;20438;-81
2023/11/04 10:43:37;;;;;;;1.10;0.63;;;9.40;99.90;;;;;;5057099;28;20426;-82
2023/11/04 10:46:10;;;;;;;0.40;0.30;;;9.40;99.90;;;;;;5058068;28;20483;-81
2023/11/04 10:48:43;;;;;;;0.37;0.30;;;9.40;99.90;;;;;;5057366;28;20519;-81
2023/11/04 10:51:16;;;;;;;0.30;0.30;;;9.30;99.90;;;;;;5056570;28;20432;-80
2023/11/04 10:53:51;;;;;;;0.40;0.30;;;9.20;99.90;;;;;;5056970;28;20430;-80
2023/11/04 10:56:22;;;;;;;0.40;0.30;;;9.20;99.90;;;;;;5057082;28;20422;-81
2023/11/04 10:58:54;;;;;;;0.40;0.30;;;9.20;99.90;;;;;;5057458;28;20429;-81
2023/11/04 11:01:25;;;;;;;0.80;0.37;;;9.30;99.90;;;;;;5056670;28;20418;-81
2023/11/04 11:03:54;;;;;;;0.40;0.40;;;9.20;99.90;;;;;;5057039;28;20430;-80
2023/11/04 11:06:21;;;;;;;0.40;0.30;;;9.30;99.90;;;;;;5064706;28;20547;-78
2023/11/04 11:08:48;;;;;;;0.40;0.30;;;9.40;99.90;;;;;;5070697;28;20495;-79
2023/11/04 11:11:20;;;;;;;0.40;0.30;;;9.40;99.90;;;;;;5055218;28;20442;-79
2023/11/04 11:13:50;;;;;;;0.40;0.30;;;9.60;99.90;;;;;;5055534;28;20434;-81
2023/11/04 11:16:18;;;;;;;0.30;0.30;;;;;;;;;;5055660;28;20422;-80
2023/11/04 11:18:46;;;;;;;0.30;0.27;;;9.60;99.90;;;;;;5056465;28;20460;-83
2023/11/04 11:21:14;;;;;;;0.30;0.30;;;9.60;99.90;;;;;;5056380;28;20448;-81
2023/11/04 11:23:42;;;;;;;0.40;0.30;;;9.60;99.90;;;;;;5055810;28;20446;-82
2023/11/04 11:26:11;;;;;;;0.40;0.40;;;9.70;99.90;;;;;;5055322;28;20496;-80
2023/11/04 11:28:39;;;;;;;0.30;0.27;;;9.70;99.90;;;;;;5055649;28;20469;-82
2023/11/04 11:31:07;;;;;;;0.37;0.30;;;9.70;99.90;;;;;;5055813;28;20446;-80
2023/11/04 11:33:34;;;;;;;0.30;0.30;;;9.70;99.90;;;;;;5055432;28;20446;-80
2023/11/04 11:36:06;;;;;;;0.30;0.30;;;9.80;99.90;;;;;;5056324;28;20430;-82
2023/11/04 11:38:34;;;;;;;0.30;0.30;;;9.80;99.90;;;;;;5057177;28;20472;-82
2023/11/04 11:41:05;;;;;;;0.30;0.30;;;9.80;99.90;;;;;;5056875;28;20454;-83
2023/11/04 11:43:34;;;;;;;0.30;0.30;;;9.80;99.90;;;;;;5056705;28;20446;-82
2023/11/04 11:46:04;;;;;;;0.50;0.30;;;9.70;99.90;;;;;;5057209;28;20442;-84
2023/11/04 11:48:35;;;;;;;0.37;0.30;;;9.70;99.90;;;;;;5056347;28;20519;-82
2023/11/04 11:51:03;;;;;;;0.30;0.20;;;9.70;99.90;;;;;;5056341;28;20430;-82
2023/11/04 11:53:32;;;;;;;0.40;0.30;;;9.70;99.90;;;;;;5056517;28;20842;-82
2023/11/04 11:56:00;;;;;;;0.40;0.30;;;9.70;99.90;;;;;;5057878;28;20850;-82
2023/11/04 11:58:28;;;;;;;0.40;0.30;;;9.70;99.90;;;;;;5056516;28;20488;-82
2023/11/04 12:00:57;;;;;;;0.40;0.30;;;9.50;99.90;;;;;;5056882;28;20501;-82
2023/11/04 12:03:24;;;;;;;0.57;0.40;;;9.40;99.90;;;;;;5056314;28;20454;-81
2023/11/04 12:05:52;;;;;;;0.30;0.30;;;9.40;99.90;;;;;;5057514;28;20426;-81
2023/11/04 12:08:20;;;;;;;0.30;0.27;;;9.40;99.90;;;;;;5058290;28;20453;-80
2023/11/04 12:10:47;;;;;;;0.57;0.30;;;9.40;99.90;;;;;;5059468;28;20449;-80
2023/11/04 12:13:14;;;;;;;0.40;0.40;;;9.30;99.90;;;;;;5060229;28;20434;-80
2023/11/04 12:15:42;;;;;;;0.40;0.30;;;9.10;99.90;;;;;;5059549;28;20446;-82
2023/11/04 12:18:11;;;;;;;0.30;0.30;;;9.00;99.90;;;;;;5059934;28;20461;-80
2023/11/04 12:20:40;;;;;;;0.30;0.20;;;9.00;99.90;;;;;;5059369;28;20454;-82
2023/11/04 12:23:08;;;;;;;0.40;0.30;;;9.00;99.90;;;;;;5059706;28;20454;-81
2023/11/04 12:25:37;;;;;;;0.40;0.30;;;9.10;99.90;;;;;;5058167;28;20926;-80
2023/11/04 12:28:06;;;;;;;0.40;0.33;;;9.10;99.90;;;;;;5056788;28;20581;-82
2023/11/04 12:30:33;;;;;;;0.40;0.33;;;9.20;99.90;;;;;;5058165;28;20844;-81
2023/11/04 12:33:02;;;;;;;0.60;0.60;;;9.30;99.90;;;;;;5059350;28;20540;-82
2023/11/04 12:35:30;;;;;;;0.30;0.30;;;9.40;99.90;;;;;;5059492;28;20503;-82
2023/11/04 12:37:58;;;;;;;0.30;0.30;;;9.30;99.90;;;;;;5059329;28;20472;-82
2023/11/04 12:40:29;;;;;;;0.30;0.30;;;9.30;99.90;;;;;;5055394;28;20457;-82
2023/11/04 12:43:01;;;;;;;1.13;0.30;;;9.30;99.90;;;;;;5055606;28;20533;-83
2023/11/04 12:45:30;;;;;;;0.50;0.40;;;9.30;99.90;;;;;;5055471;28;20422;-82
2023/11/04 12:47:57;;;;;;;0.40;0.30;;;9.40;99.90;;;;;;5054965;28;20481;-83
2023/11/04 12:50:23;;;;;;;0.40;0.30;;;9.30;99.90;;;;;;5054337;28;20437;-84
2023/11/04 12:52:52;;;;;;;0.40;0.30;;;9.10;99.90;;;;;;5055216;28;20816;-82
2023/11/04 12:55:19;;;;;;;0.40;0.40;;;8.90;99.90;;;;;;5054506;28;20460;-82
2023/11/04 12:57:45;;;;;;;0.40;0.30;;;8.70;99.90;;;;;;5053929;28;20548;-83
2023/11/04 13:00:14;;;;;;;0.30;0.30;;;8.60;99.90;;;;;;5054091;28;20436;-83
2023/11/04 13:02:41;;;;;;;0.30;0.30;;;8.40;99.90;;;;;;5054069;28;20820;-83
2023/11/04 13:05:08;;;;;;;0.57;0.40;;;8.40;99.90;;;;;;5054135;28;20430;-84
2023/11/04 13:07:35;;;;;;;0.40;0.40;;;8.30;99.90;;;;;;5054403;28;20543;-83
2023/11/04 13:10:03;;;;;;;0.40;0.40;;;8.20;99.90;;;;;;5054747;28;20814;-83
2023/11/04 13:12:30;;;;;;;0.40;0.30;;;8.20;99.90;;;;;;5055312;28;20818;-83
2023/11/04 13:14:57;;;;;;;0.57;0.30;;;8.00;99.90;;;;;;5063943;28;20438;-84
2023/11/04 13:17:25;;;;;;;0.40;0.30;;;7.90;99.90;;;;;;5065921;28;20859;-81
2023/11/04 13:19:51;;;;;;;0.40;0.30;;;7.90;99.90;;;;;;5054466;28;20808;-82
2023/11/04 13:22:18;;;;;;;0.30;0.20;;;7.80;99.90;;;;;;5054164;28;20958;-82
2023/11/04 13:24:45;;;;;;;0.60;0.33;;;7.70;99.90;;;;;;5054520;28;20446;-82
2023/11/04 13:27:12;;;;;;;0.30;0.30;;;7.80;99.90;;;;;;5054137;28;20900;-82
2023/11/04 13:29:39;;;;;;;0.40;0.30;;;7.70;99.90;;;;;;5054629;28;20442;-83
2023/11/04 13:32:08;;;;;;;0.30;0.30;;;7.70;99.90;;;;;;5054911;28;20829;-84
2023/11/04 13:34:36;;;;;;;0.60;0.30;;;7.70;99.90;;;;;;5054620;28;20437;-82
2023/11/04 13:37:03;;;;;;;0.30;0.30;;;7.70;99.90;;;;;;5057118;28;20878;-82